sensor_id;sensor_type;location;lat;lon;timestamp;temperature;humidity
8463;DHT22;4268;52.506;13.462;2023-12-28T00:00:06;5.00;99.90
8463;DHT22;4268;52.506;13.462;2023-12-28T00:02:32;5.00;99.90
8463;DHT22;4268;52.506;13.462;2023-12-28T00:04:58;5.00;99.90
8463;DHT22;4268;52.506;13.462;2023-12-28T00:07:23;6.30;99.90
8463;DHT22;4268;52.506;13.462;2023-12-28T00:09:49;5.00;99.90
8463;DHT22;4268;52.506;13.462;2023-12-28T00:12:15;4.70;99.90
8463;DHT22;4268;52.506;13.462;2023-12-28T00:14:40;5.00;99.90
8463;DHT22;4268;52.506;13.462;2023-12-28T00:17:06;5.00;99.90
8463;DHT22;4268;52.506;13.462;2023-12-28T00:19:31;5.00;99.90
8463;DHT22;4268;52.506;13.462;2023-12-28T00:21:56;5.00;99.90
8463;DHT22;4268;52.506;13.462;2023-12-28T00:24:22;5.00;99.90
8463;DHT22;4268;52.506;13.462;2023-12-28T00:26:48;5.00;99.90
8463;DHT22;4268;52.506;13.462;2023-12-28T00:29:13;4.90;99.90
8463;DHT22;4268;52.506;13.462;2023-12-28T00:31:39;4.90;99.90
8463;DHT22;4268;52.506;13.462;2023-12-28T00:34:09;4.90;99.90
8463;DHT22;4268;52.506;13.462;2023-12-28T00:36:36;3.70;99.90
8463;DHT22;4268;52.506;13.462;2023-12-28T00:39:02;4.90;99.90
8463;DHT22;4268;52.506;13.462;2023-12-28T00:41:27;5.80;99.90
8463;DHT22;4268;52.506;13.462;2023-12-28T00:43:53;5.00;99.90
8463;DHT22;4268;52.506;13.462;2023-12-28T00:46:18;5.00;99.90
8463;DHT22;4268;52.506;13.462;2023-12-28T00:48:44;4.90;99.90
8463;DHT22;4268;52.506;13.462;2023-12-28T00:51:13;4.90;99.90
8463;DHT22;4268;52.506;13.462;2023-12-28T00:53:42;4.40;99.90
8463;DHT22;4268;52.506;13.462;2023-12-28T00:56:09;3.50;99.90
8463;DHT22;4268;52.506;13.462;2023-12-28T00:58:41;4.90;99.90
8463;DHT22;4268;52.506;13.462;2023-12-28T01:01:12;4.90;99.90
8463;DHT22;4268;52.506;13.462;2023-12-28T01:03:37;4.90;99.90
8463;DHT22;4268;52.506;13.462;2023-12-28T01:06:07;4.20;99.90
8463;DHT22;4268;52.506;13.462;2023-12-28T01:08:33;4.80;99.90
8463;DHT22;4268;52.506;13.462;2023-12-28T01:11:04;4.80;99.90
8463;DHT22;4268;52.506;13.462;2023-12-28T01:13:29;4.80;99.90
8463;DHT22;4268;52.506;13.462;2023-12-28T01:15:56;3.90;99.90
8463;DHT22;4268;52.506;13.462;2023-12-28T01:18:21;4.80;99.90
8463;DHT22;4268;52.506;13.462;2023-12-28T01:20:47;4.80;99.90
8463;DHT22;4268;52.506;13.462;2023-12-28T01:23:12;4.60;99.90
8463;DHT22;4268;52.506;13.462;2023-12-28T01:25:38;4.70;99.90
8463;DHT22;4268;52.506;13.462;2023-12-28T01:28:03;4.80;99.90
8463;DHT22;4268;52.506;13.462;2023-12-28T01:30:29;4.80;99.90
8463;DHT22;4268;52.506;13.462;2023-12-28T01:32:55;4.70;99.90
8463;DHT22;4268;52.506;13.462;2023-12-28T01:35:21;4.80;99.90
8463;DHT22;4268;52.506;13.462;2023-12-28T01:37:46;4.90;99.90
8463;DHT22;4268;52.506;13.462;2023-12-28T01:40:12;4.80;99.90
8463;DHT22;4268;52.506;13.462;2023-12-28T01:42:37;4.90;99.90
8463;DHT22;4268;52.506;13.462;2023-12-28T01:45:03;3.90;99.90
8463;DHT22;4268;52.506;13.462;2023-12-28T01:47:29;5.00;99.90
8463;DHT22;4268;52.506;13.462;2023-12-28T01:49:56;5.60;99.90
8463;DHT22;4268;52.506;13.462;2023-12-28T01:52:22;5.10;99.90
8463;DHT22;4268;52.506;13.462;2023-12-28T01:54:48;5.10;99.90
8463;DHT22;4268;52.506;13.462;2023-12-28T01:57:14;5.10;99.90
8463;DHT22;4268;52.506;13.462;2023-12-28T01:59:41;5.10;99.90
8463;DHT22;4268;52.506;13.462;2023-12-28T02:02:07;5.20;99.90
8463;DHT22;4268;52.506;13.462;2023-12-28T02:04:33;4.20;99.90
8463;DHT22;4268;52.506;13.462;2023-12-28T02:07:00;3.90;99.90
8463;DHT22;4268;52.506;13.462;2023-12-28T02:09:25;7.00;99.90
8463;DHT22;4268;52.506;13.462;2023-12-28T02:11:52;5.10;99.90
8463;DHT22;4268;52.506;13.462;2023-12-28T02:14:18;5.20;99.90
8463;DHT22;4268;52.506;13.462;2023-12-28T02:16:56;5.20;99.90
8463;DHT22;4268;52.506;13.462;2023-12-28T02:19:45;5.20;99.90
8463;DHT22;4268;52.506;13.462;2023-12-28T02:22:14;5.20;99.90
8463;DHT22;4268;52.506;13.462;2023-12-28T02:25:04;5.20;99.90
8463;DHT22;4268;52.506;13.462;2023-12-28T02:27:41;5.20;99.90
8463;DHT22;4268;52.506;13.462;2023-12-28T02:30:08;5.30;99.90
8463;DHT22;4268;52.506;13.462;2023-12-28T02:35:26;5.40;99.90
8463;DHT22;4268;52.506;13.462;2023-12-28T02:37:58;5.50;99.90
8463;DHT22;4268;52.506;13.462;2023-12-28T02:40:24;5.60;99.90
8463;DHT22;4268;52.506;13.462;2023-12-28T02:42:50;5.70;99.90
8463;DHT22;4268;52.506;13.462;2023-12-28T02:45:17;5.80;99.90
8463;DHT22;4268;52.506;13.462;2023-12-28T02:47:43;5.90;99.90
8463;DHT22;4268;52.506;13.462;2023-12-28T02:50:09;6.20;99.90
8463;DHT22;4268;52.506;13.462;2023-12-28T02:52:36;6.10;99.90
8463;DHT22;4268;52.506;13.462;2023-12-28T02:55:02;6.10;99.90
8463;DHT22;4268;52.506;13.462;2023-12-28T02:57:31;6.30;99.90
8463;DHT22;4268;52.506;13.462;2023-12-28T03:00:08;6.40;99.90
8463;DHT22;4268;52.506;13.462;2023-12-28T03:02:40;6.40;99.90
8463;DHT22;4268;52.506;13.462;2023-12-28T03:05:06;6.50;99.90
8463;DHT22;4268;52.506;13.462;2023-12-28T03:07:36;6.70;99.90
8463;DHT22;4268;52.506;13.462;2023-12-28T03:10:03;6.80;99.90
8463;DHT22;4268;52.506;13.462;2023-12-28T03:12:30;7.90;99.90
8463;DHT22;4268;52.506;13.462;2023-12-28T03:14:58;6.50;99.90
8463;DHT22;4268;52.506;13.462;2023-12-28T03:17:30;7.00;99.90
8463;DHT22;4268;52.506;13.462;2023-12-28T03:20:09;7.00;99.90
8463;DHT22;4268;52.506;13.462;2023-12-28T03:22:35;6.90;99.90
8463;DHT22;4268;52.506;13.462;2023-12-28T03:25:04;9.10;99.90
8463;DHT22;4268;52.506;13.462;2023-12-28T03:27:31;7.10;99.90
8463;DHT22;4268;52.506;13.462;2023-12-28T03:29:57;7.20;99.90
8463;DHT22;4268;52.506;13.462;2023-12-28T03:32:23;8.10;99.90
8463;DHT22;4268;52.506;13.462;2023-12-28T03:34:49;7.30;99.90
8463;DHT22;4268;52.506;13.462;2023-12-28T03:37:16;7.20;99.90
8463;DHT22;4268;52.506;13.462;2023-12-28T03:39:43;7.40;99.90
8463;DHT22;4268;52.506;13.462;2023-12-28T03:42:14;7.50;99.90
8463;DHT22;4268;52.506;13.462;2023-12-28T03:44:43;7.50;99.90
8463;DHT22;4268;52.506;13.462;2023-12-28T03:47:12;7.20;99.90
8463;DHT22;4268;52.506;13.462;2023-12-28T03:49:40;7.60;99.90
8463;DHT22;4268;52.506;13.462;2023-12-28T03:52:06;7.50;99.90
8463;DHT22;4268;52.506;13.462;2023-12-28T03:54:32;7.60;99.90
8463;DHT22;4268;52.506;13.462;2023-12-28T03:56:58;7.60;99.90
8463;DHT22;4268;52.506;13.462;2023-12-28T03:59:24;6.60;99.90
8463;DHT22;4268;52.506;13.462;2023-12-28T04:01:50;7.70;99.90
8463;DHT22;4268;52.506;13.462;2023-12-28T04:04:16;7.60;99.90
8463;DHT22;4268;52.506;13.462;2023-12-28T04:06:41;7.70;99.90
8463;DHT22;4268;52.506;13.462;2023-12-28T04:09:11;7.70;99.90
8463;DHT22;4268;52.506;13.462;2023-12-28T04:11:37;7.70;99.90
8463;DHT22;4268;52.506;13.462;2023-12-28T04:14:03;7.60;99.90
8463;DHT22;4268;52.506;13.462;2023-12-28T04:16:28;7.60;99.90
8463;DHT22;4268;52.506;13.462;2023-12-28T04:18:54;7.70;99.90
8463;DHT22;4268;52.506;13.462;2023-12-28T04:21:19;7.70;99.90
8463;DHT22;4268;52.506;13.462;2023-12-28T04:23:45;7.70;99.90
8463;DHT22;4268;52.506;13.462;2023-12-28T04:26:10;7.70;99.90
8463;DHT22;4268;52.506;13.462;2023-12-28T04:28:36;7.70;99.90
8463;DHT22;4268;52.506;13.462;2023-12-28T04:31:05;7.70;99.90
8463;DHT22;4268;52.506;13.462;2023-12-28T04:33:31;7.70;99.90
8463;DHT22;4268;52.506;13.462;2023-12-28T04:36:01;7.80;99.90
8463;DHT22;4268;52.506;13.462;2023-12-28T04:38:28;7.80;99.90
8463;DHT22;4268;52.506;13.462;2023-12-28T04:40:54;7.80;99.90
8463;DHT22;4268;52.506;13.462;2023-12-28T04:43:19;7.80;99.90
8463;DHT22;4268;52.506;13.462;2023-12-28T04:45:45;7.80;99.90
8463;DHT22;4268;52.506;13.462;2023-12-28T04:48:10;7.90;99.90
8463;DHT22;4268;52.506;13.462;2023-12-28T04:50:36;7.90;99.90
8463;DHT22;4268;52.506;13.462;2023-12-28T04:53:01;8.30;99.90
8463;DHT22;4268;52.506;13.462;2023-12-28T04:55:28;7.90;99.90
8463;DHT22;4268;52.506;13.462;2023-12-28T04:57:53;7.90;99.90
8463;DHT22;4268;52.506;13.462;2023-12-28T05:00:19;7.90;99.90
8463;DHT22;4268;52.506;13.462;2023-12-28T05:02:44;8.00;99.90
8463;DHT22;4268;52.506;13.462;2023-12-28T05:05:12;8.00;99.90
8463;DHT22;4268;52.506;13.462;2023-12-28T05:07:38;7.90;99.90
8463;DHT22;4268;52.506;13.462;2023-12-28T05:10:04;8.00;99.90
8463;DHT22;4268;52.506;13.462;2023-12-28T05:12:29;8.00;99.90
8463;DHT22;4268;52.506;13.462;2023-12-28T05:14:55;8.00;99.90
8463;DHT22;4268;52.506;13.462;2023-12-28T05:17:20;8.00;99.90
8463;DHT22;4268;52.506;13.462;2023-12-28T05:19:46;7.90;99.90
8463;DHT22;4268;52.506;13.462;2023-12-28T05:22:12;7.90;99.90
8463;DHT22;4268;52.506;13.462;2023-12-28T05:24:38;7.90;99.90
8463;DHT22;4268;52.506;13.462;2023-12-28T05:27:03;7.90;99.90
8463;DHT22;4268;52.506;13.462;2023-12-28T05:29:29;7.90;99.90
8463;DHT22;4268;52.506;13.462;2023-12-28T05:31:54;8.00;99.90
8463;DHT22;4268;52.506;13.462;2023-12-28T05:34:20;7.90;99.90
8463;DHT22;4268;52.506;13.462;2023-12-28T05:36:45;7.90;99.90
8463;DHT22;4268;52.506;13.462;2023-12-28T05:39:11;7.90;99.90
8463;DHT22;4268;52.506;13.462;2023-12-28T05:41:39;7.90;99.90
8463;DHT22;4268;52.506;13.462;2023-12-28T05:44:05;7.90;99.90
8463;DHT22;4268;52.506;13.462;2023-12-28T05:46:31;7.80;99.90
8463;DHT22;4268;52.506;13.462;2023-12-28T05:48:56;7.80;99.90
8463;DHT22;4268;52.506;13.462;2023-12-28T05:51:22;7.70;99.90
8463;DHT22;4268;52.506;13.462;2023-12-28T05:53:47;7.80;99.90
8463;DHT22;4268;52.506;13.462;2023-12-28T05:56:13;7.80;99.90
8463;DHT22;4268;52.506;13.462;2023-12-28T05:58:38;7.80;99.90
8463;DHT22;4268;52.506;13.462;2023-12-28T06:01:04;7.80;99.90
8463;DHT22;4268;52.506;13.462;2023-12-28T06:03:30;7.90;99.90
8463;DHT22;4268;52.506;13.462;2023-12-28T06:05:56;7.90;99.90
8463;DHT22;4268;52.506;13.462;2023-12-28T06:08:22;7.90;99.90
8463;DHT22;4268;52.506;13.462;2023-12-28T06:10:47;8.00;99.90
8463;DHT22;4268;52.506;13.462;2023-12-28T06:13:13;8.00;99.90
8463;DHT22;4268;52.506;13.462;2023-12-28T06:15:38;8.10;99.90
8463;DHT22;4268;52.506;13.462;2023-12-28T06:18:04;8.10;99.90
8463;DHT22;4268;52.506;13.462;2023-12-28T06:20:30;8.10;99.90
8463;DHT22;4268;52.506;13.462;2023-12-28T06:22:55;8.10;99.90
8463;DHT22;4268;52.506;13.462;2023-12-28T06:25:21;8.10;99.90
8463;DHT22;4268;52.506;13.462;2023-12-28T06:27:46;8.10;99.90
8463;DHT22;4268;52.506;13.462;2023-12-28T06:30:12;8.10;99.90
8463;DHT22;4268;52.506;13.462;2023-12-28T06:32:38;8.10;99.90
8463;DHT22;4268;52.506;13.462;2023-12-28T06:35:04;8.10;99.90
8463;DHT22;4268;52.506;13.462;2023-12-28T06:37:29;8.10;99.90
8463;DHT22;4268;52.506;13.462;2023-12-28T06:39:55;8.10;99.90
8463;DHT22;4268;52.506;13.462;2023-12-28T06:42:20;8.10;99.90
8463;DHT22;4268;52.506;13.462;2023-12-28T06:44:46;8.20;99.90
8463;DHT22;4268;52.506;13.462;2023-12-28T06:47:11;8.20;99.90
8463;DHT22;4268;52.506;13.462;2023-12-28T06:49:37;8.10;99.90
8463;DHT22;4268;52.506;13.462;2023-12-28T06:52:02;8.20;99.90
8463;DHT22;4268;52.506;13.462;2023-12-28T06:54:28;8.20;99.90
8463;DHT22;4268;52.506;13.462;2023-12-28T06:56:53;8.20;99.90
8463;DHT22;4268;52.506;13.462;2023-12-28T06:59:19;8.20;99.90
8463;DHT22;4268;52.506;13.462;2023-12-28T07:01:44;8.20;99.90
8463;DHT22;4268;52.506;13.462;2023-12-28T07:04:11;8.20;99.90
8463;DHT22;4268;52.506;13.462;2023-12-28T07:06:37;8.20;99.90
8463;DHT22;4268;52.506;13.462;2023-12-28T07:09:03;8.20;99.90
8463;DHT22;4268;52.506;13.462;2023-12-28T07:11:30;8.20;99.90
8463;DHT22;4268;52.506;13.462;2023-12-28T07:13:55;8.20;99.90
8463;DHT22;4268;52.506;13.462;2023-12-28T07:16:21;8.20;99.90
8463;DHT22;4268;52.506;13.462;2023-12-28T07:18:46;8.20;99.90
8463;DHT22;4268;52.506;13.462;2023-12-28T07:21:12;8.20;99.90
8463;DHT22;4268;52.506;13.462;2023-12-28T07:23:37;8.10;99.90
8463;DHT22;4268;52.506;13.462;2023-12-28T07:26:04;8.10;99.90
8463;DHT22;4268;52.506;13.462;2023-12-28T07:28:29;8.10;99.90
8463;DHT22;4268;52.506;13.462;2023-12-28T07:30:55;8.10;99.90
8463;DHT22;4268;52.506;13.462;2023-12-28T07:33:21;8.10;99.90
8463;DHT22;4268;52.506;13.462;2023-12-28T07:35:47;8.10;99.90
8463;DHT22;4268;52.506;13.462;2023-12-28T07:38:12;8.10;99.90
8463;DHT22;4268;52.506;13.462;2023-12-28T07:40:38;8.10;99.90
8463;DHT22;4268;52.506;13.462;2023-12-28T07:43:04;8.10;99.90
8463;DHT22;4268;52.506;13.462;2023-12-28T07:45:30;8.20;99.90
8463;DHT22;4268;52.506;13.462;2023-12-28T07:47:55;8.20;99.90
8463;DHT22;4268;52.506;13.462;2023-12-28T07:50:21;8.20;99.90
8463;DHT22;4268;52.506;13.462;2023-12-28T07:52:47;8.20;99.90
8463;DHT22;4268;52.506;13.462;2023-12-28T07:55:13;8.20;99.90
8463;DHT22;4268;52.506;13.462;2023-12-28T07:57:39;8.30;99.90
8463;DHT22;4268;52.506;13.462;2023-12-28T08:00:06;8.30;99.90
8463;DHT22;4268;52.506;13.462;2023-12-28T08:02:31;8.30;99.90
8463;DHT22;4268;52.506;13.462;2023-12-28T08:04:57;8.30;99.90
8463;DHT22;4268;52.506;13.462;2023-12-28T08:07:23;8.40;99.90
8463;DHT22;4268;52.506;13.462;2023-12-28T08:09:48;8.40;99.90
8463;DHT22;4268;52.506;13.462;2023-12-28T08:12:14;8.40;99.90
8463;DHT22;4268;52.506;13.462;2023-12-28T08:14:39;8.50;99.90
8463;DHT22;4268;52.506;13.462;2023-12-28T08:17:05;8.50;99.90
8463;DHT22;4268;52.506;13.462;2023-12-28T08:19:30;8.60;99.90
8463;DHT22;4268;52.506;13.462;2023-12-28T08:21:56;8.60;99.90
8463;DHT22;4268;52.506;13.462;2023-12-28T08:24:21;8.60;99.90
8463;DHT22;4268;52.506;13.462;2023-12-28T08:26:47;8.70;99.90
8463;DHT22;4268;52.506;13.462;2023-12-28T08:29:12;8.70;99.90
8463;DHT22;4268;52.506;13.462;2023-12-28T08:31:38;8.70;99.90
8463;DHT22;4268;52.506;13.462;2023-12-28T08:34:03;8.70;99.90
8463;DHT22;4268;52.506;13.462;2023-12-28T08:36:29;8.80;99.90
8463;DHT22;4268;52.506;13.462;2023-12-28T08:38:55;8.80;99.90
8463;DHT22;4268;52.506;13.462;2023-12-28T08:41:24;8.80;99.90
8463;DHT22;4268;52.506;13.462;2023-12-28T08:43:50;8.80;99.90
8463;DHT22;4268;52.506;13.462;2023-12-28T08:46:16;8.90;99.90
8463;DHT22;4268;52.506;13.462;2023-12-28T08:48:42;8.90;99.90
8463;DHT22;4268;52.506;13.462;2023-12-28T08:51:09;8.90;99.90
8463;DHT22;4268;52.506;13.462;2023-12-28T08:53:35;8.90;99.90
8463;DHT22;4268;52.506;13.462;2023-12-28T08:56:00;8.90;99.90
8463;DHT22;4268;52.506;13.462;2023-12-28T08:58:26;9.00;99.90
8463;DHT22;4268;52.506;13.462;2023-12-28T09:00:51;9.00;99.90
8463;DHT22;4268;52.506;13.462;2023-12-28T09:03:17;9.00;99.90
8463;DHT22;4268;52.506;13.462;2023-12-28T09:05:42;9.00;99.90
8463;DHT22;4268;52.506;13.462;2023-12-28T09:08:08;9.00;99.90
8463;DHT22;4268;52.506;13.462;2023-12-28T09:10:34;9.10;99.90
8463;DHT22;4268;52.506;13.462;2023-12-28T09:12:59;9.10;99.90
8463;DHT22;4268;52.506;13.462;2023-12-28T09:15:25;9.00;99.90
8463;DHT22;4268;52.506;13.462;2023-12-28T09:17:51;9.00;99.90
8463;DHT22;4268;52.506;13.462;2023-12-28T09:20:18;9.00;99.90
8463;DHT22;4268;52.506;13.462;2023-12-28T09:22:44;9.00;99.90
8463;DHT22;4268;52.506;13.462;2023-12-28T09:25:10;9.00;99.90
8463;DHT22;4268;52.506;13.462;2023-12-28T09:27:35;9.00;99.90
8463;DHT22;4268;52.506;13.462;2023-12-28T09:30:01;9.00;99.90
8463;DHT22;4268;52.506;13.462;2023-12-28T09:32:26;8.90;99.90
8463;DHT22;4268;52.506;13.462;2023-12-28T09:34:52;8.90;99.90
8463;DHT22;4268;52.506;13.462;2023-12-28T09:37:17;8.90;99.90
8463;DHT22;4268;52.506;13.462;2023-12-28T09:39:43;8.90;99.90
8463;DHT22;4268;52.506;13.462;2023-12-28T09:42:17;8.80;99.90
8463;DHT22;4268;52.506;13.462;2023-12-28T09:44:43;8.80;99.90
8463;DHT22;4268;52.506;13.462;2023-12-28T09:47:10;8.80;99.90
8463;DHT22;4268;52.506;13.462;2023-12-28T09:49:38;8.80;99.90
8463;DHT22;4268;52.506;13.462;2023-12-28T09:52:04;8.80;99.90
8463;DHT22;4268;52.506;13.462;2023-12-28T09:54:30;8.80;99.90
8463;DHT22;4268;52.506;13.462;2023-12-28T09:56:57;8.70;99.90
8463;DHT22;4268;52.506;13.462;2023-12-28T09:59:23;8.70;99.90
8463;DHT22;4268;52.506;13.462;2023-12-28T10:01:49;8.70;99.90
8463;DHT22;4268;52.506;13.462;2023-12-28T10:04:16;8.70;99.90
8463;DHT22;4268;52.506;13.462;2023-12-28T10:06:41;8.70;99.90
8463;DHT22;4268;52.506;13.462;2023-12-28T10:09:07;8.70;99.90
8463;DHT22;4268;52.506;13.462;2023-12-28T10:11:33;8.80;99.90
8463;DHT22;4268;52.506;13.462;2023-12-28T10:13:59;8.80;99.90
8463;DHT22;4268;52.506;13.462;2023-12-28T10:16:25;8.80;99.90
8463;DHT22;4268;52.506;13.462;2023-12-28T10:18:51;8.80;99.90
8463;DHT22;4268;52.506;13.462;2023-12-28T10:21:16;8.90;99.90
8463;DHT22;4268;52.506;13.462;2023-12-28T10:23:42;8.90;99.90
8463;DHT22;4268;52.506;13.462;2023-12-28T10:26:08;8.90;99.90
8463;DHT22;4268;52.506;13.462;2023-12-28T10:28:36;8.90;99.90
8463;DHT22;4268;52.506;13.462;2023-12-28T10:31:03;9.00;99.90
8463;DHT22;4268;52.506;13.462;2023-12-28T10:33:34;9.00;99.90
8463;DHT22;4268;52.506;13.462;2023-12-28T10:36:06;9.10;99.90
8463;DHT22;4268;52.506;13.462;2023-12-28T10:38:36;9.20;99.90
8463;DHT22;4268;52.506;13.462;2023-12-28T10:41:06;9.30;99.90
8463;DHT22;4268;52.506;13.462;2023-12-28T10:43:38;9.30;99.90
8463;DHT22;4268;52.506;13.462;2023-12-28T10:46:07;9.40;99.90
8463;DHT22;4268;52.506;13.462;2023-12-28T10:48:38;9.40;99.90
8463;DHT22;4268;52.506;13.462;2023-12-28T10:51:09;9.40;99.90
8463;DHT22;4268;52.506;13.462;2023-12-28T10:53:49;9.50;99.90
8463;DHT22;4268;52.506;13.462;2023-12-28T10:56:26;9.50;99.90
8463;DHT22;4268;52.506;13.462;2023-12-28T10:59:03;9.50;99.90
8463;DHT22;4268;52.506;13.462;2023-12-28T11:01:32;9.50;99.90
8463;DHT22;4268;52.506;13.462;2023-12-28T11:04:06;9.50;99.90
8463;DHT22;4268;52.506;13.462;2023-12-28T11:06:34;9.60;99.90
8463;DHT22;4268;52.506;13.462;2023-12-28T11:09:00;9.60;99.90
8463;DHT22;4268;52.506;13.462;2023-12-28T11:11:27;9.60;99.90
8463;DHT22;4268;52.506;13.462;2023-12-28T11:13:54;9.70;99.90
8463;DHT22;4268;52.506;13.462;2023-12-28T11:16:22;9.80;99.90
8463;DHT22;4268;52.506;13.462;2023-12-28T11:18:49;9.80;99.90
8463;DHT22;4268;52.506;13.462;2023-12-28T11:21:16;9.90;99.90
8463;DHT22;4268;52.506;13.462;2023-12-28T11:23:43;10.00;99.90
8463;DHT22;4268;52.506;13.462;2023-12-28T11:26:35;10.00;99.90
8463;DHT22;4268;52.506;13.462;2023-12-28T11:29:02;10.20;99.90
8463;DHT22;4268;52.506;13.462;2023-12-28T11:31:28;10.20;99.90
8463;DHT22;4268;52.506;13.462;2023-12-28T11:33:57;10.20;99.90
8463;DHT22;4268;52.506;13.462;2023-12-28T11:36:33;10.30;99.90
8463;DHT22;4268;52.506;13.462;2023-12-28T11:39:02;10.30;99.90
8463;DHT22;4268;52.506;13.462;2023-12-28T11:41:31;10.30;99.90
8463;DHT22;4268;52.506;13.462;2023-12-28T11:43:57;10.30;99.90
8463;DHT22;4268;52.506;13.462;2023-12-28T11:46:22;10.30;99.90
8463;DHT22;4268;52.506;13.462;2023-12-28T11:48:48;10.30;99.90
8463;DHT22;4268;52.506;13.462;2023-12-28T11:51:14;10.30;99.90
8463;DHT22;4268;52.506;13.462;2023-12-28T11:53:41;10.30;99.90
8463;DHT22;4268;52.506;13.462;2023-12-28T11:56:07;10.30;99.90
8463;DHT22;4268;52.506;13.462;2023-12-28T11:58:35;10.20;99.90
8463;DHT22;4268;52.506;13.462;2023-12-28T12:01:04;10.20;99.90
8463;DHT22;4268;52.506;13.462;2023-12-28T12:03:29;10.20;99.90
8463;DHT22;4268;52.506;13.462;2023-12-28T12:05:58;10.20;99.90
8463;DHT22;4268;52.506;13.462;2023-12-28T12:08:24;10.20;99.90
8463;DHT22;4268;52.506;13.462;2023-12-28T12:11:04;10.20;99.90
8463;DHT22;4268;52.506;13.462;2023-12-28T12:13:31;10.20;99.90
8463;DHT22;4268;52.506;13.462;2023-12-28T12:15:57;10.20;99.90
8463;DHT22;4268;52.506;13.462;2023-12-28T12:18:23;10.20;99.90
8463;DHT22;4268;52.506;13.462;2023-12-28T12:20:49;10.20;99.90
8463;DHT22;4268;52.506;13.462;2023-12-28T12:23:15;10.20;99.90
8463;DHT22;4268;52.506;13.462;2023-12-28T12:25:41;10.10;99.90
8463;DHT22;4268;52.506;13.462;2023-12-28T12:28:07;10.10;99.90
8463;DHT22;4268;52.506;13.462;2023-12-28T12:30:34;10.10;99.90
8463;DHT22;4268;52.506;13.462;2023-12-28T12:33:00;10.10;99.90
8463;DHT22;4268;52.506;13.462;2023-12-28T12:35:26;10.20;99.90
8463;DHT22;4268;52.506;13.462;2023-12-28T12:37:52;10.20;99.90
8463;DHT22;4268;52.506;13.462;2023-12-28T12:40:19;10.20;99.90
8463;DHT22;4268;52.506;13.462;2023-12-28T12:42:55;10.20;99.90
8463;DHT22;4268;52.506;13.462;2023-12-28T12:45:21;10.20;99.90
8463;DHT22;4268;52.506;13.462;2023-12-28T12:47:50;10.20;99.90
8463;DHT22;4268;52.506;13.462;2023-12-28T12:50:16;10.20;99.90
8463;DHT22;4268;52.506;13.462;2023-12-28T12:52:42;10.20;99.90
8463;DHT22;4268;52.506;13.462;2023-12-28T12:55:11;10.20;99.90
8463;DHT22;4268;52.506;13.462;2023-12-28T12:57:38;10.30;99.90
8463;DHT22;4268;52.506;13.462;2023-12-28T13:00:05;10.40;99.90
8463;DHT22;4268;52.506;13.462;2023-12-28T13:02:34;10.40;99.90
8463;DHT22;4268;52.506;13.462;2023-12-28T13:05:02;10.40;99.90
8463;DHT22;4268;52.506;13.462;2023-12-28T13:07:27;10.30;99.90
8463;DHT22;4268;52.506;13.462;2023-12-28T13:09:53;10.30;99.90
8463;DHT22;4268;52.506;13.462;2023-12-28T13:12:19;10.30;99.90
8463;DHT22;4268;52.506;13.462;2023-12-28T13:14:44;10.30;99.90
8463;DHT22;4268;52.506;13.462;2023-12-28T13:17:11;10.30;99.90
8463;DHT22;4268;52.506;13.462;2023-12-28T13:19:36;10.20;99.90
8463;DHT22;4268;52.506;13.462;2023-12-28T13:22:02;10.20;99.90
8463;DHT22;4268;52.506;13.462;2023-12-28T13:24:29;10.20;99.90
8463;DHT22;4268;52.506;13.462;2023-12-28T13:26:54;10.20;99.90
8463;DHT22;4268;52.506;13.462;2023-12-28T13:29:20;10.20;99.90
8463;DHT22;4268;52.506;13.462;2023-12-28T13:31:45;10.20;99.90
8463;DHT22;4268;52.506;13.462;2023-12-28T13:34:15;10.20;99.90
8463;DHT22;4268;52.506;13.462;2023-12-28T13:36:41;10.20;99.90
8463;DHT22;4268;52.506;13.462;2023-12-28T13:39:06;10.20;99.90
8463;DHT22;4268;52.506;13.462;2023-12-28T13:41:34;10.20;99.90
8463;DHT22;4268;52.506;13.462;2023-12-28T13:44:00;10.20;99.90
8463;DHT22;4268;52.506;13.462;2023-12-28T13:46:30;10.30;99.90
8463;DHT22;4268;52.506;13.462;2023-12-28T13:48:55;10.40;99.90
8463;DHT22;4268;52.506;13.462;2023-12-28T13:51:22;10.40;99.90
8463;DHT22;4268;52.506;13.462;2023-12-28T13:53:48;10.50;99.90
8463;DHT22;4268;52.506;13.462;2023-12-28T13:56:13;10.50;99.90
8463;DHT22;4268;52.506;13.462;2023-12-28T13:58:39;10.50;99.90
8463;DHT22;4268;52.506;13.462;2023-12-28T14:01:05;10.50;99.90
8463;DHT22;4268;52.506;13.462;2023-12-28T14:03:30;10.50;99.90
8463;DHT22;4268;52.506;13.462;2023-12-28T14:05:56;10.50;99.90
8463;DHT22;4268;52.506;13.462;2023-12-28T14:08:21;10.50;99.90
8463;DHT22;4268;52.506;13.462;2023-12-28T14:10:47;10.50;99.90
8463;DHT22;4268;52.506;13.462;2023-12-28T14:13:12;10.40;99.90
8463;DHT22;4268;52.506;13.462;2023-12-28T14:15:38;10.40;99.90
8463;DHT22;4268;52.506;13.462;2023-12-28T14:18:04;10.40;99.90
8463;DHT22;4268;52.506;13.462;2023-12-28T14:20:32;10.40;99.90
8463;DHT22;4268;52.506;13.462;2023-12-28T14:22:57;10.30;99.90
8463;DHT22;4268;52.506;13.462;2023-12-28T14:25:23;10.30;99.90
8463;DHT22;4268;52.506;13.462;2023-12-28T14:27:49;10.20;99.90
8463;DHT22;4268;52.506;13.462;2023-12-28T14:30:16;10.20;99.90
8463;DHT22;4268;52.506;13.462;2023-12-28T14:32:42;10.20;99.90
8463;DHT22;4268;52.506;13.462;2023-12-28T14:35:08;10.10;99.90
8463;DHT22;4268;52.506;13.462;2023-12-28T14:37:34;10.10;99.90
8463;DHT22;4268;52.506;13.462;2023-12-28T14:39:59;10.00;99.90
8463;DHT22;4268;52.506;13.462;2023-12-28T14:42:25;10.00;99.90
8463;DHT22;4268;52.506;13.462;2023-12-28T14:44:50;9.90;99.90
8463;DHT22;4268;52.506;13.462;2023-12-28T14:47:17;9.80;99.90
8463;DHT22;4268;52.506;13.462;2023-12-28T14:49:42;9.80;99.90
8463;DHT22;4268;52.506;13.462;2023-12-28T14:52:10;9.80;99.90
8463;DHT22;4268;52.506;13.462;2023-12-28T14:54:35;9.70;99.90
8463;DHT22;4268;52.506;13.462;2023-12-28T14:57:01;9.70;99.90
8463;DHT22;4268;52.506;13.462;2023-12-28T14:59:26;9.70;99.90
8463;DHT22;4268;52.506;13.462;2023-12-28T15:01:52;9.70;99.90
8463;DHT22;4268;52.506;13.462;2023-12-28T15:04:18;9.70;99.90
8463;DHT22;4268;52.506;13.462;2023-12-28T15:06:43;9.60;99.90
8463;DHT22;4268;52.506;13.462;2023-12-28T15:09:08;9.60;99.90
8463;DHT22;4268;52.506;13.462;2023-12-28T15:11:35;9.60;99.90
8463;DHT22;4268;52.506;13.462;2023-12-28T15:14:02;9.50;99.90
8463;DHT22;4268;52.506;13.462;2023-12-28T15:16:28;9.50;99.90
8463;DHT22;4268;52.506;13.462;2023-12-28T15:18:54;9.50;99.90
8463;DHT22;4268;52.506;13.462;2023-12-28T15:21:20;9.50;99.90
8463;DHT22;4268;52.506;13.462;2023-12-28T15:23:46;9.40;99.90
8463;DHT22;4268;52.506;13.462;2023-12-28T15:26:13;9.40;99.90
8463;DHT22;4268;52.506;13.462;2023-12-28T15:28:38;9.40;99.90
8463;DHT22;4268;52.506;13.462;2023-12-28T15:31:04;9.40;99.90
8463;DHT22;4268;52.506;13.462;2023-12-28T15:33:30;9.40;99.90
8463;DHT22;4268;52.506;13.462;2023-12-28T15:35:55;9.40;99.90
8463;DHT22;4268;52.506;13.462;2023-12-28T15:38:21;9.30;99.90
8463;DHT22;4268;52.506;13.462;2023-12-28T15:40:46;9.30;99.90
8463;DHT22;4268;52.506;13.462;2023-12-28T15:43:12;9.30;99.90
8463;DHT22;4268;52.506;13.462;2023-12-28T15:45:38;9.30;99.90
8463;DHT22;4268;52.506;13.462;2023-12-28T15:48:04;9.30;99.90
8463;DHT22;4268;52.506;13.462;2023-12-28T15:50:29;9.30;99.90
8463;DHT22;4268;52.506;13.462;2023-12-28T15:52:55;9.30;99.90
8463;DHT22;4268;52.506;13.462;2023-12-28T15:55:22;9.30;99.90